Time;durP1;ratioP1;P1;durP2;ratioP2;P2;SDS_P1;SDS_P2;PMS_P1;PMS_P2;Temp;Humidity;BMP_temperature;BMP_pressure;BME280_temperature;BME280_humidity;BME280_pressure;Samples;Min_cycle;Max_cycle;Signal;HPM_P1;HPM_P2
2021/04/08 00:00:24;;;;;;;8.23;4.65;;;7.30;59.00;;;;;;1485123;40;20396;-59
2021/04/08 00:01:45;;;;;;;7.65;4.95;;;7.30;59.00;;;;;;1483235;40;20040;-59
2021/04/08 00:03:06;;;;;;;5.07;4.15;;;7.30;59.10;;;;;;1486009;40;20048;-59
2021/04/08 00:04:27;;;;;;;8.45;4.40;;;7.30;59.00;;;;;;1485957;40;20040;-59
2021/04/08 00:05:48;;;;;;;8.02;4.22;;;7.30;59.00;;;;;;1483290;40;20104;-59
2021/04/08 00:07:09;;;;;;;8.25;4.47;;;7.30;59.00;;;;;;1485018;40;20365;-59
2021/04/08 00:08:30;;;;;;;9.20;4.60;;;7.30;59.00;;;;;;1487351;40;20048;-60
2021/04/08 00:09:51;;;;;;;6.50;3.63;;;7.30;59.00;;;;;;1484530;40;20039;-59
2021/04/08 00:11:12;;;;;;;6.60;3.83;;;7.30;59.00;;;;;;1487056;40;20020;-59
2021/04/08 00:12:33;;;;;;;5.90;3.97;;;7.30;59.00;;;;;;1486161;40;20053;-60
2021/04/08 00:13:54;;;;;;;5.47;4.00;;;7.30;59.10;;;;;;1480907;40;20065;-60
2021/04/08 00:15:16;;;;;;;5.63;3.38;;;7.30;59.10;;;;;;1484498;40;20056;-60
2021/04/08 00:16:37;;;;;;;6.90;3.55;;;7.30;59.20;;;;;;1485637;40;20021;-59
2021/04/08 00:17:58;;;;;;;7.05;3.72;;;7.30;59.10;;;;;;1486425;40;20033;-59
2021/04/08 00:19:19;;;;;;;5.25;3.38;;;7.30;59.10;;;;;;1485534;40;20350;-60
2021/04/08 00:20:40;;;;;;;5.10;3.53;;;7.30;59.10;;;;;;1487638;39;20405;-60
2021/04/08 00:22:01;;;;;;;6.72;3.67;;;7.30;59.10;;;;;;1485935;40;20237;-60
2021/04/08 00:23:22;;;;;;;6.13;3.50;;;7.30;59.10;;;;;;1483262;40;20059;-59
2021/04/08 00:24:43;;;;;;;7.47;3.75;;;7.30;59.10;;;;;;1484673;40;20039;-60
2021/04/08 00:26:04;;;;;;;10.63;4.22;;;7.30;59.10;;;;;;1487277;39;20044;-60
2021/04/08 00:27:25;;;;;;;5.90;3.75;;;7.30;59.10;;;;;;1484589;39;20098;-60
2021/04/08 00:28:46;;;;;;;7.10;4.35;;;7.20;59.10;;;;;;1484957;40;20165;-59
2021/04/08 00:30:08;;;;;;;6.10;4.32;;;7.20;59.10;;;;;;1484130;40;20376;-59
2021/04/08 00:31:29;;;;;;;6.90;4.57;;;7.20;59.20;;;;;;1480308;40;20126;-59
2021/04/08 00:32:50;;;;;;;8.25;4.75;;;7.20;59.20;;;;;;1483816;40;20068;-59
2021/04/08 00:34:11;;;;;;;8.20;4.70;;;7.20;59.20;;;;;;1484151;39;20100;-59
2021/04/08 00:35:32;;;;;;;8.63;4.55;;;7.20;59.20;;;;;;1484173;39;20032;-59
2021/04/08 00:36:53;;;;;;;8.93;4.20;;;7.20;59.20;;;;;;1486857;39;20032;-59
2021/04/08 00:38:14;;;;;;;6.65;4.25;;;7.20;59.20;;;;;;1484144;40;20017;-60
2021/04/08 00:39:35;;;;;;;7.75;4.05;;;7.20;59.20;;;;;;1481144;40;20029;-59
2021/04/08 00:40:56;;;;;;;5.80;3.42;;;7.20;59.20;;;;;;1485022;40;20024;-59
2021/04/08 00:42:17;;;;;;;8.80;4.18;;;7.20;59.20;;;;;;1484492;40;20087;-60
2021/04/08 00:43:38;;;;;;;4.93;3.83;;;7.20;59.30;;;;;;1479756;40;20033;-60
2021/04/08 00:44:58;;;;;;;7.07;3.60;;;7.10;59.30;;;;;;1485865;40;20071;-60
2021/04/08 00:46:19;;;;;;;6.47;3.90;;;7.10;59.30;;;;;;1485336;40;20044;-59
2021/04/08 00:47:40;;;;;;;6.50;3.70;;;7.20;59.40;;;;;;1485886;40;20032;-60
2021/04/08 00:49:01;;;;;;;6.43;3.50;;;7.10;59.90;;;;;;1486272;40;20120;-60
2021/04/08 00:50:23;;;;;;;5.75;3.55;;;7.10;59.40;;;;;;1483382;39;20076;-60
2021/04/08 00:51:44;;;;;;;7.82;3.17;;;7.10;59.40;;;;;;1486968;40;20068;-59
2021/04/08 00:53:12;;;;;;;7.18;3.45;;;7.10;59.40;;;;;;1486619;39;20373;-60
2021/04/08 00:54:34;;;;;;;7.00;3.65;;;7.10;59.40;;;;;;1487187;40;20274;-60
2021/04/08 00:55:56;;;;;;;4.78;3.03;;;7.10;59.40;;;;;;1485199;39;20264;-59
2021/04/08 00:57:17;;;;;;;7.25;3.30;;;7.10;59.40;;;;;;1484859;39;20040;-59
2021/04/08 00:58:39;;;;;;;4.20;2.90;;;7.10;59.40;;;;;;1485627;40;20033;-59
2021/04/08 01:00:02;;;;;;;7.10;3.05;;;7.10;59.40;;;;;;1485634;40;20436;-59
2021/04/08 01:01:23;;;;;;;5.38;3.15;;;7.10;59.40;;;;;;1484041;40;20020;-59
2021/04/08 01:02:44;;;;;;;4.93;3.03;;;7.10;59.40;;;;;;1483180;40;20067;-60
2021/04/08 01:04:06;;;;;;;7.93;3.20;;;7.10;59.40;;;;;;1484862;40;20385;-59
2021/04/08 01:05:27;;;;;;;6.00;3.05;;;7.10;59.40;;;;;;1486284;39;20257;-59
2021/04/08 01:06:48;;;;;;;5.28;3.03;;;7.10;59.50;;;;;;1485040;40;20061;-59
2021/04/08 01:08:11;;;;;;;4.97;2.45;;;7.10;59.50;;;;;;1485975;40;20266;-64
2021/04/08 01:09:32;;;;;;;5.53;2.88;;;7.10;59.40;;;;;;1485894;40;20344;-59
2021/04/08 01:10:53;;;;;;;4.45;2.70;;;7.10;59.40;;;;;;1490317;39;20375;-58
2021/04/08 01:12:14;;;;;;;6.10;3.13;;;7.00;59.40;;;;;;1486429;39;20491;-59
2021/04/08 01:13:38;;;;;;;7.53;3.50;;;7.10;59.50;;;;;;1485236;40;20054;-59
2021/04/08 01:14:59;;;;;;;9.68;3.20;;;7.10;59.60;;;;;;1484336;40;20139;-59
2021/04/08 01:16:33;;;;;;;5.85;2.88;;;7.10;60.10;;;;;;1486908;40;20048;-59
2021/04/08 01:18:30;;;;;;;4.40;2.70;;;7.00;59.50;;;;;;1483582;40;20021;-60
2021/04/08 01:20:00;;;;;;;5.90;2.90;;;7.10;59.60;;;;;;1482073;40;20052;-59
2021/04/08 01:21:36;;;;;;;5.30;3.17;;;7.00;59.50;;;;;;1486309;40;20059;-60
2021/04/08 01:22:57;;;;;;;7.10;2.83;;;7.00;59.60;;;;;;1483856;39;20029;-60
2021/04/08 01:24:39;;;;;;;6.00;2.78;;;7.00;59.50;;;;;;1479902;40;20048;-59
2021/04/08 01:26:38;;;;;;;8.25;3.15;;;7.00;59.50;;;;;;1481072;39;20044;-59
2021/04/08 01:28:32;;;;;;;6.00;2.65;;;7.00;59.50;;;;;;1480388;40;20073;-59
2021/04/08 01:30:38;;;;;;;3.70;2.45;;;7.00;59.50;;;;;;1479405;40;20041;-59
2021/04/08 01:32:02;;;;;;;4.28;2.58;;;7.00;59.50;;;;;;1471859;40;20390;-58
2021/04/08 01:33:56;;;;;;;6.22;2.28;;;7.00;59.40;;;;;;1478655;40;20032;-59
2021/04/08 01:35:24;;;;;;;6.57;2.53;;;7.00;59.40;;;;;;1481047;40;20032;-59
2021/04/08 01:36:50;;;;;;;8.55;2.63;;;7.00;59.40;;;;;;1482262;40;20033;-59
2021/04/08 01:38:17;;;;;;;4.20;2.55;;;7.00;59.40;;;;;;1480378;40;20098;-60
2021/04/08 01:39:43;;;;;;;3.97;2.30;;;7.00;59.30;;;;;;1483109;40;20040;-60
2021/04/08 01:41:04;;;;;;;5.47;2.38;;;7.00;59.30;;;;;;1482115;40;20401;-59
2021/04/08 01:42:26;;;;;;;4.40;2.33;;;7.00;59.40;;;;;;1481500;40;20044;-59
2021/04/08 01:43:50;;;;;;;5.38;2.40;;;7.00;59.30;;;;;;1480357;40;20033;-59
2021/04/08 01:45:11;;;;;;;5.50;2.33;;;7.00;59.30;;;;;;1479765;40;20535;-60
2021/04/08 01:46:35;;;;;;;2.83;2.28;;;7.00;59.40;;;;;;1480891;40;20358;-59
2021/04/08 01:47:57;;;;;;;6.40;2.80;;;7.00;59.30;;;;;;1478757;40;20372;-59
2021/04/08 01:49:19;;;;;;;6.25;2.42;;;7.00;59.30;;;;;;1479867;40;20037;-59
2021/04/08 01:50:41;;;;;;;6.07;2.53;;;7.00;59.30;;;;;;1481098;40;20138;-59
2021/04/08 01:52:03;;;;;;;4.97;2.67;;;7.00;59.30;;;;;;1482245;40;20437;-59
2021/04/08 01:53:25;;;;;;;6.75;2.78;;;7.00;59.30;;;;;;1482842;40;20084;-59
2021/04/08 01:54:52;;;;;;;7.85;2.60;;;7.00;59.30;;;;;;1479616;40;20041;-59
2021/04/08 01:56:20;;;;;;;2.15;1.95;;;7.00;59.30;;;;;;1480938;40;20117;-59
2021/04/08 01:57:43;;;;;;;3.47;2.45;;;7.00;59.30;;;;;;1480589;40;20083;-60
2021/04/08 01:59:05;;;;;;;6.13;2.50;;;7.00;59.30;;;;;;1480678;40;20033;-59
2021/04/08 02:00:26;;;;;;;4.38;2.45;;;7.00;59.30;;;;;;1481936;40;20476;-59
2021/04/08 02:01:48;;;;;;;8.48;2.92;;;7.10;59.40;;;;;;1479463;40;20894;-60
2021/04/08 02:03:11;;;;;;;3.92;2.70;;;7.10;59.40;;;;;;1479546;40;20025;-59
2021/04/08 02:04:34;;;;;;;3.70;2.67;;;7.10;59.40;;;;;;1480555;40;20033;-59
2021/04/08 02:05:56;;;;;;;4.10;3.10;;;7.00;59.30;;;;;;1481127;40;20306;-60
2021/04/08 02:07:18;;;;;;;4.45;2.80;;;7.10;59.30;;;;;;1482507;40;20041;-59
2021/04/08 02:08:43;;;;;;;4.88;2.90;;;7.10;59.30;;;;;;1482716;40;20424;-60
2021/04/08 02:10:07;;;;;;;2.95;2.38;;;7.00;59.20;;;;;;1481465;40;20043;-59
2021/04/08 02:11:29;;;;;;;7.05;3.30;;;7.10;59.20;;;;;;1482248;40;20347;-59
2021/04/08 02:12:52;;;;;;;4.43;3.08;;;7.10;59.20;;;;;;1476398;40;20041;-59
2021/04/08 02:14:14;;;;;;;2.92;2.72;;;7.10;59.20;;;;;;1479670;40;20051;-59
2021/04/08 02:15:35;;;;;;;3.80;2.53;;;7.10;59.20;;;;;;1476987;40;20025;-59
2021/04/08 02:16:57;;;;;;;2.83;2.60;;;7.10;59.30;;;;;;1479836;40;20044;-60
2021/04/08 02:18:22;;;;;;;3.47;2.70;;;7.10;59.20;;;;;;1481990;40;20029;-59
2021/04/08 02:19:46;;;;;;;3.38;2.63;;;7.10;59.20;;;;;;1477837;40;20076;-60
2021/04/08 02:21:08;;;;;;;6.13;2.40;;;7.10;59.20;;;;;;1480732;40;20025;-60
2021/04/08 02:22:30;;;;;;;2.67;2.47;;;7.10;59.10;;;;;;1482570;40;20029;-60
2021/04/08 02:23:51;;;;;;;3.92;2.72;;;7.10;59.10;;;;;;1482601;40;20052;-59
2021/04/08 02:25:15;;;;;;;6.13;3.47;;;7.00;59.00;;;;;;1481914;40;20040;-60
2021/04/08 02:26:39;;;;;;;4.47;3.13;;;7.10;59.00;;;;;;1480047;40;20048;-60
2021/04/08 02:28:02;;;;;;;5.88;3.67;;;7.10;58.90;;;;;;1480220;40;20043;-60
2021/04/08 02:29:23;;;;;;;4.55;3.38;;;7.00;58.90;;;;;;1479993;40;20032;-59
2021/04/08 02:30:46;;;;;;;4.65;3.67;;;7.00;58.90;;;;;;1480924;40;20033;-60
2021/04/08 02:32:08;;;;;;;5.05;3.55;;;7.10;58.80;;;;;;1482800;40;20024;-59
2021/04/08 02:33:31;;;;;;;9.75;4.40;;;7.00;58.70;;;;;;1481183;40;20034;-59
2021/04/08 02:34:51;;;;;;;7.25;4.45;;;7.10;58.70;;;;;;1479515;40;20032;-59
2021/04/08 02:36:13;;;;;;;5.70;4.50;;;7.10;58.60;;;;;;1481153;40;20052;-60
2021/04/08 02:37:34;;;;;;;4.90;4.30;;;7.00;58.50;;;;;;1481765;40;20029;-60
2021/04/08 02:38:55;;;;;;;5.53;4.10;;;7.00;58.60;;;;;;1482945;40;20507;-60
2021/04/08 02:40:21;;;;;;;8.80;4.78;;;7.00;58.70;;;;;;1479684;40;20072;-60
2021/04/08 02:41:43;;;;;;;5.55;3.88;;;7.00;58.60;;;;;;1479003;40;20041;-60
2021/04/08 02:43:04;;;;;;;8.15;3.80;;;7.00;58.60;;;;;;1478486;40;20072;-60
2021/04/08 02:44:25;;;;;;;8.35;3.47;;;7.00;58.60;;;;;;1481362;40;20104;-60
2021/04/08 02:45:46;;;;;;;5.18;3.63;;;6.90;58.60;;;;;;1481528;40;20043;-59
2021/04/08 02:47:07;;;;;;;3.80;3.40;;;6.90;58.60;;;;;;1479696;40;20036;-59
2021/04/08 02:48:32;;;;;;;3.95;3.40;;;7.00;58.70;;;;;;1478050;40;21365;-59
2021/04/08 02:49:53;;;;;;;4.13;3.22;;;6.90;58.70;;;;;;1481231;40;20076;-59
2021/04/08 02:51:24;;;;;;;4.60;2.95;;;7.00;58.80;;;;;;1479089;40;20033;-60
2021/04/08 02:52:57;;;;;;;3.45;3.15;;;6.90;58.80;;;;;;1480753;40;20206;-59
2021/04/08 02:54:38;;;;;;;4.20;2.92;;;7.00;58.80;;;;;;1480395;40;20037;-60
2021/04/08 02:56:26;;;;;;;4.32;3.03;;;6.90;58.80;;;;;;1480872;40;20042;-59
2021/04/08 02:58:09;;;;;;;4.00;2.75;;;6.90;58.80;;;;;;1479685;40;20510;-59
2021/04/08 02:59:47;;;;;;;4.03;2.65;;;7.00;58.90;;;;;;1482721;40;20025;-60
2021/04/08 03:01:12;;;;;;;3.42;2.33;;;6.90;58.80;;;;;;1481916;40;20349;-59
2021/04/08 03:02:37;;;;;;;3.70;2.60;;;7.00;58.90;;;;;;1481231;40;20044;-60
2021/04/08 03:03:59;;;;;;;5.18;2.63;;;7.00;59.00;;;;;;1481277;40;20031;-60
2021/04/08 03:05:21;;;;;;;5.35;2.50;;;6.90;58.90;;;;;;1479283;40;20073;-59
2021/04/08 03:06:42;;;;;;;4.63;2.40;;;6.90;58.90;;;;;;1482502;40;20406;-60
2021/04/08 03:08:06;;;;;;;4.97;2.22;;;6.90;58.90;;;;;;1481719;40;20048;-60
2021/04/08 03:09:36;;;;;;;5.80;2.15;;;6.90;59.00;;;;;;1482338;40;20035;-60
2021/04/08 03:11:00;;;;;;;;;;;6.90;59.10;;;;;;1481430;40;20155;-60
2021/04/08 03:12:22;;;;;;;2.28;1.90;;;6.90;59.20;;;;;;1479774;40;19964;-60
2021/04/08 03:13:46;;;;;;;5.28;2.72;;;7.00;59.00;;;;;;1478705;40;20362;-59
2021/04/08 03:15:08;;;;;;;6.45;3.08;;;7.00;59.10;;;;;;1481046;40;20307;-60
2021/04/08 03:16:36;;;;;;;5.80;2.70;;;6.90;59.10;;;;;;1483051;40;20060;-59
2021/04/08 03:17:59;;;;;;;4.38;2.50;;;6.90;59.10;;;;;;1482714;40;20041;-60
2021/04/08 03:19:23;;;;;;;5.03;2.85;;;6.90;59.10;;;;;;1480322;40;20363;-60
2021/04/08 03:20:50;;;;;;;3.65;2.65;;;6.90;59.20;;;;;;1481039;40;20122;-60
2021/04/08 03:22:13;;;;;;;2.58;2.33;;;6.90;59.20;;;;;;1482597;40;20048;-59
2021/04/08 03:23:35;;;;;;;5.10;2.70;;;6.90;59.20;;;;;;1481393;40;20106;-60
2021/04/08 03:24:57;;;;;;;4.25;2.75;;;6.90;59.20;;;;;;1481598;40;20114;-60
2021/04/08 03:26:18;;;;;;;6.80;2.80;;;6.90;59.30;;;;;;1481165;40;20044;-60
2021/04/08 03:27:40;;;;;;;4.40;2.70;;;6.90;59.30;;;;;;1484501;40;20290;-60
2021/04/08 03:29:02;;;;;;;6.03;3.22;;;6.90;59.30;;;;;;1481871;40;20063;-60
2021/04/08 03:30:24;;;;;;;7.10;3.22;;;7.00;59.30;;;;;;1481111;40;20028;-60
2021/04/08 03:31:46;;;;;;;5.68;3.42;;;6.90;59.20;;;;;;1481792;40;20313;-59
2021/04/08 03:33:08;;;;;;;5.10;3.30;;;6.90;59.20;;;;;;1480013;40;20037;-60
2021/04/08 03:34:30;;;;;;;8.00;3.65;;;6.90;59.20;;;;;;1482858;40;20044;-59
2021/04/08 03:35:51;;;;;;;5.05;3.28;;;6.90;59.20;;;;;;1478466;40;20391;-59
2021/04/08 03:37:13;;;;;;;6.20;3.55;;;6.90;59.30;;;;;;1480009;40;20117;-59
2021/04/08 03:38:35;;;;;;;4.95;3.85;;;6.90;59.20;;;;;;1480882;40;20043;-59
2021/04/08 03:39:56;;;;;;;7.10;3.67;;;6.90;59.20;;;;;;1478779;40;20057;-59
2021/04/08 03:41:18;;;;;;;6.53;4.00;;;6.90;59.10;;;;;;1483389;40;20036;-59
2021/04/08 03:42:40;;;;;;;7.13;4.03;;;7.00;59.20;;;;;;1482340;40;20028;-59
2021/04/08 03:44:01;;;;;;;8.43;4.00;;;6.90;59.20;;;;;;1482786;40;20545;-59
2021/04/08 03:45:22;;;;;;;7.85;4.00;;;6.90;59.20;;;;;;1481227;40;20035;-59
2021/04/08 03:46:45;;;;;;;6.32;4.03;;;6.90;59.10;;;;;;1482143;40;20041;-59
2021/04/08 03:48:12;;;;;;;9.98;4.28;;;6.90;59.00;;;;;;1476761;40;20033;-59
2021/04/08 03:49:34;;;;;;;7.40;4.65;;;6.90;58.90;;;;;;1480945;40;20049;-59
2021/04/08 03:50:56;;;;;;;6.60;4.63;;;6.90;58.80;;;;;;1474816;40;20080;-57
2021/04/08 03:52:18;;;;;;;7.25;4.57;;;6.90;58.80;;;;;;1479124;40;20107;-59
2021/04/08 03:53:40;;;;;;;7.47;4.90;;;6.90;58.80;;;;;;1481924;40;20233;-59
2021/04/08 03:55:03;;;;;;;7.25;4.50;;;6.90;58.80;;;;;;1480149;40;20239;-59
2021/04/08 03:56:25;;;;;;;12.95;4.55;;;6.90;58.90;;;;;;1479607;40;20381;-59
2021/04/08 03:57:46;;;;;;;8.02;4.50;;;6.90;58.90;;;;;;1483073;40;20068;-59
2021/04/08 03:59:09;;;;;;;10.43;5.00;;;6.80;58.90;;;;;;1487468;39;20036;-59
2021/04/08 04:00:30;;;;;;;9.00;5.68;;;6.90;58.90;;;;;;1482033;39;20365;-59
2021/04/08 04:01:51;;;;;;;8.45;4.57;;;6.90;58.90;;;;;;1480857;40;20048;-59
2021/04/08 04:03:15;;;;;;;6.50;5.15;;;6.90;58.90;;;;;;1483068;40;20072;-59
2021/04/08 04:04:37;;;;;;;8.30;5.60;;;6.90;59.00;;;;;;1481542;40;20029;-59
2021/04/08 04:05:58;;;;;;;9.27;5.05;;;6.90;58.80;;;;;;1482058;40;20029;-59
2021/04/08 04:07:20;;;;;;;7.22;4.78;;;6.90;58.80;;;;;;1480304;40;20137;-59
2021/04/08 04:08:41;;;;;;;5.75;4.70;;;6.90;58.80;;;;;;1482922;40;20041;-59
2021/04/08 04:10:04;;;;;;;10.10;5.15;;;6.90;58.80;;;;;;1480321;40;20040;-59
2021/04/08 04:11:25;;;;;;;6.38;5.18;;;6.90;58.70;;;;;;1481176;40;20259;-59
2021/04/08 04:12:48;;;;;;;5.47;4.90;;;6.90;58.60;;;;;;1481891;40;20960;-59
2021/04/08 04:14:12;;;;;;;8.20;5.43;;;6.90;58.60;;;;;;1481862;40;20029;-59
2021/04/08 04:15:35;;;;;;;8.05;5.63;;;6.90;58.60;;;;;;1480310;40;20069;-59
2021/04/08 04:16:57;;;;;;;9.95;5.28;;;6.90;58.50;;;;;;1481980;40;20052;-59
2021/04/08 04:18:19;;;;;;;8.80;6.07;;;6.90;58.50;;;;;;1478966;40;20033;-59
2021/04/08 04:19:40;;;;;;;11.55;5.50;;;6.90;58.50;;;;;;1480473;40;20606;-59
2021/04/08 04:21:01;;;;;;;9.57;5.60;;;6.90;58.40;;;;;;1480314;40;20041;-59
2021/04/08 04:22:22;;;;;;;10.23;5.22;;;6.90;58.40;;;;;;1481289;40;20035;-59
2021/04/08 04:23:43;;;;;;;11.27;6.13;;;6.90;58.40;;;;;;1481971;40;20395;-59
2021/04/08 04:25:10;;;;;;;9.40;6.55;;;6.90;58.40;;;;;;1480573;40;20032;-59
2021/04/08 04:26:31;;;;;;;13.23;6.18;;;6.90;58.40;;;;;;1479433;40;20021;-59
2021/04/08 04:27:51;;;;;;;10.20;6.15;;;6.90;58.40;;;;;;1479462;40;20055;-59
2021/04/08 04:29:12;;;;;;;7.28;5.70;;;6.90;58.30;;;;;;1481818;40;20041;-59
2021/04/08 04:30:34;;;;;;;8.30;5.60;;;6.90;58.30;;;;;;1480444;40;20082;-59
2021/04/08 04:31:55;;;;;;;8.43;6.32;;;6.90;58.30;;;;;;1481829;40;20055;-59
2021/04/08 04:33:16;;;;;;;8.25;5.65;;;6.90;58.30;;;;;;1480741;40;20382;-59
2021/04/08 04:34:41;;;;;;;15.00;6.28;;;6.80;58.20;;;;;;1480794;40;20021;-59
2021/04/08 04:36:02;;;;;;;8.10;5.97;;;6.80;58.10;;;;;;1480895;40;20073;-59
2021/04/08 04:37:23;;;;;;;8.18;5.97;;;6.80;58.20;;;;;;1479520;40;20037;-59
2021/04/08 04:38:44;;;;;;;7.35;5.53;;;6.80;58.20;;;;;;1482236;40;20073;-59
2021/04/08 04:40:05;;;;;;;11.23;6.32;;;6.90;58.90;;;;;;1479941;40;20025;-59
2021/04/08 04:41:27;;;;;;;14.05;6.80;;;6.80;58.30;;;;;;1479167;40;20029;-59
2021/04/08 04:42:48;;;;;;;8.60;5.60;;;6.80;58.20;;;;;;1479122;40;20033;-59
2021/04/08 04:44:09;;;;;;;8.07;6.10;;;6.90;58.30;;;;;;1481802;40;20338;-59
2021/04/08 04:45:30;;;;;;;6.65;5.75;;;6.80;58.20;;;;;;1480687;40;20036;-59
2021/04/08 04:46:51;;;;;;;12.38;6.70;;;6.80;58.20;;;;;;1481827;40;20039;-59
2021/04/08 04:48:12;;;;;;;7.10;6.22;;;6.80;58.20;;;;;;1484392;40;20447;-59
2021/04/08 04:49:33;;;;;;;10.52;6.82;;;6.90;58.20;;;;;;1482377;40;20027;-60
2021/04/08 04:50:54;;;;;;;10.05;6.07;;;6.80;58.10;;;;;;1483029;40;20636;-60
2021/04/08 04:52:16;;;;;;;7.68;6.50;;;6.80;58.10;;;;;;1479550;40;20013;-60
2021/04/08 04:53:37;;;;;;;7.65;5.78;;;6.80;58.20;;;;;;1480639;40;20043;-60
2021/04/08 04:54:57;;;;;;;9.10;6.40;;;6.80;58.20;;;;;;1481254;40;20041;-60
2021/04/08 04:56:18;;;;;;;7.18;5.88;;;6.80;58.20;;;;;;1481998;40;20025;-59
2021/04/08 04:57:39;;;;;;;7.93;6.53;;;6.80;58.20;;;;;;1486377;40;20621;-59
2021/04/08 04:59:00;;;;;;;9.75;6.35;;;6.80;58.10;;;;;;1483443;40;20024;-59
2021/04/08 05:00:22;;;;;;;8.18;6.13;;;6.80;58.10;;;;;;1480927;40;20420;-59
2021/04/08 05:01:43;;;;;;;8.85;6.18;;;6.80;58.20;;;;;;1479186;40;20117;-60
2021/04/08 05:03:04;;;;;;;8.85;6.65;;;6.80;58.10;;;;;;1479851;40;20037;-59
2021/04/08 05:04:25;;;;;;;9.38;6.57;;;6.80;58.10;;;;;;1480133;40;20266;-59
2021/04/08 05:05:46;;;;;;;10.05;6.75;;;6.80;58.10;;;;;;1482653;40;20053;-59
2021/04/08 05:07:07;;;;;;;12.50;6.82;;;6.90;58.10;;;;;;1477637;40;20301;-60
2021/04/08 05:08:28;;;;;;;8.65;6.55;;;6.80;57.90;;;;;;1478165;40;20104;-60
2021/04/08 05:09:49;;;;;;;7.88;6.30;;;6.80;57.90;;;;;;1481517;39;20131;-59
2021/04/08 05:11:09;;;;;;;9.13;6.45;;;6.80;58.00;;;;;;1479558;40;20446;-59
2021/04/08 05:12:30;;;;;;;10.18;6.70;;;6.80;58.00;;;;;;1482040;40;20024;-59
2021/04/08 05:13:51;;;;;;;10.35;6.80;;;6.80;58.00;;;;;;1482711;40;20287;-60
2021/04/08 05:15:12;;;;;;;7.55;6.15;;;6.80;58.10;;;;;;1481368;40;20025;-60
2021/04/08 05:16:33;;;;;;;8.63;6.90;;;6.80;58.10;;;;;;1479656;40;20111;-59
2021/04/08 05:17:54;;;;;;;9.98;6.90;;;6.80;58.10;;;;;;1480447;40;20033;-60
2021/04/08 05:19:15;;;;;;;8.48;6.40;;;6.80;58.10;;;;;;1482518;40;20243;-60
2021/04/08 05:20:36;;;;;;;9.65;6.75;;;6.80;58.60;;;;;;1481004;40;20442;-60
2021/04/08 05:21:57;;;;;;;8.55;6.13;;;6.80;58.00;;;;;;1483860;40;20053;-60
2021/04/08 05:23:18;;;;;;;10.95;6.53;;;6.80;58.00;;;;;;1481005;40;20040;-59
2021/04/08 05:24:38;;;;;;;11.88;6.88;;;6.80;58.00;;;;;;1480187;40;20149;-60
2021/04/08 05:25:59;;;;;;;7.60;6.22;;;6.80;58.00;;;;;;1480539;40;20269;-60
2021/04/08 05:27:20;;;;;;;8.57;5.95;;;6.80;58.00;;;;;;1481121;40;20060;-60
2021/04/08 05:28:41;;;;;;;8.95;6.40;;;6.80;57.90;;;;;;1477181;40;20511;-60
2021/04/08 05:30:03;;;;;;;7.75;6.00;;;6.80;57.90;;;;;;1479849;40;20121;-60
2021/04/08 05:31:24;;;;;;;10.25;6.55;;;6.80;57.80;;;;;;1479474;40;20021;-60
2021/04/08 05:32:44;;;;;;;8.35;5.97;;;6.80;57.90;;;;;;1481234;40;20146;-60
2021/04/08 05:34:05;;;;;;;10.20;6.00;;;6.80;57.90;;;;;;1479693;40;20040;-60
2021/04/08 05:35:26;;;;;;;9.43;6.50;;;6.80;57.90;;;;;;1480961;40;20032;-60
2021/04/08 05:36:47;;;;;;;8.98;6.10;;;6.80;57.90;;;;;;1481979;40;20032;-60
2021/04/08 05:38:08;;;;;;;8.75;6.53;;;6.80;57.80;;;;;;1482245;40;20021;-60
2021/04/08 05:39:29;;;;;;;8.75;6.55;;;6.80;57.90;;;;;;1483391;39;20023;-60
2021/04/08 05:40:50;;;;;;;8.88;5.88;;;6.80;57.90;;;;;;1480145;39;20041;-60
2021/04/08 05:42:11;;;;;;;8.75;6.82;;;6.80;57.90;;;;;;1483683;40;20036;-60
2021/04/08 05:43:32;;;;;;;11.60;6.15;;;6.80;57.90;;;;;;1480896;40;20065;-60
2021/04/08 05:44:53;;;;;;;9.55;6.47;;;6.80;57.90;;;;;;1481178;40;20251;-60
2021/04/08 05:46:14;;;;;;;8.82;6.68;;;6.80;57.80;;;;;;1481092;40;20125;-60
2021/04/08 05:47:35;;;;;;;11.60;6.05;;;6.80;57.70;;;;;;1482716;40;20118;-59
2021/04/08 05:48:56;;;;;;;8.80;6.45;;;6.80;57.60;;;;;;1481075;40;20025;-59
2021/04/08 05:50:16;;;;;;;7.82;6.13;;;6.80;57.60;;;;;;1480760;40;20044;-59
2021/04/08 05:51:37;;;;;;;8.27;5.63;;;6.80;57.60;;;;;;1481577;40;20401;-59
2021/04/08 05:52:58;;;;;;;9.30;5.85;;;6.80;57.50;;;;;;1479220;40;20036;-59
2021/04/08 05:54:19;;;;;;;7.18;5.55;;;6.80;57.60;;;;;;1480430;40;20374;-59
2021/04/08 05:55:40;;;;;;;6.97;6.00;;;6.80;57.60;;;;;;1483388;40;20039;-60
2021/04/08 05:57:01;;;;;;;6.63;5.68;;;6.80;57.70;;;;;;1480962;40;20053;-59
2021/04/08 05:58:22;;;;;;;8.80;5.60;;;6.80;57.70;;;;;;1481369;40;20033;-59
2021/04/08 05:59:43;;;;;;;7.88;6.05;;;6.80;57.70;;;;;;1483964;40;20105;-60
2021/04/08 06:01:04;;;;;;;6.88;6.10;;;6.80;57.60;;;;;;1479536;40;20029;-60
2021/04/08 06:02:25;;;;;;;7.43;5.68;;;6.90;57.60;;;;;;1480999;40;20029;-60
2021/04/08 06:03:48;;;;;;;8.13;5.72;;;6.80;57.50;;;;;;1480374;40;20041;-60
2021/04/08 06:05:09;;;;;;;8.10;5.25;;;6.90;57.60;;;;;;1483716;40;20039;-60
2021/04/08 06:06:30;;;;;;;6.93;5.80;;;6.90;57.60;;;;;;1479043;40;20192;-60
2021/04/08 06:07:51;;;;;;;9.85;6.10;;;6.90;57.50;;;;;;1484508;39;20052;-60
2021/04/08 06:09:12;;;;;;;8.77;5.65;;;6.90;57.50;;;;;;1482819;40;20063;-59
2021/04/08 06:10:33;;;;;;;8.50;5.47;;;6.90;57.50;;;;;;1482356;40;20036;-60
2021/04/08 06:11:54;;;;;;;9.75;6.03;;;6.90;57.50;;;;;;1481787;40;20044;-60
2021/04/08 06:13:15;;;;;;;11.15;5.65;;;6.90;57.40;;;;;;1481884;40;20024;-59
2021/04/08 06:14:37;;;;;;;6.93;5.32;;;6.90;57.40;;;;;;1480483;40;20281;-59
2021/04/08 06:15:58;;;;;;;9.30;5.93;;;6.90;57.50;;;;;;1479347;40;20033;-60
2021/04/08 06:17:19;;;;;;;7.75;5.72;;;6.90;57.40;;;;;;1479211;40;20037;-59
2021/04/08 06:18:40;;;;;;;6.57;5.38;;;6.90;57.30;;;;;;1481221;39;20035;-59
2021/04/08 06:20:01;;;;;;;7.90;5.57;;;6.90;57.20;;;;;;1480214;40;20142;-60
2021/04/08 06:21:22;;;;;;;8.30;5.22;;;7.00;57.30;;;;;;1480867;40;20040;-60
2021/04/08 06:22:43;;;;;;;6.75;5.53;;;7.00;57.30;;;;;;1482038;40;20043;-60
2021/04/08 06:24:04;;;;;;;6.18;5.53;;;7.00;57.30;;;;;;1481522;40;20084;-60
2021/04/08 06:25:25;;;;;;;7.28;5.43;;;7.00;57.30;;;;;;1482906;40;20040;-59
2021/04/08 06:26:46;;;;;;;7.32;5.40;;;7.00;57.30;;;;;;1480976;40;20043;-59
2021/04/08 06:28:07;;;;;;;7.20;5.47;;;7.00;57.20;;;;;;1481292;40;20143;-60
2021/04/08 06:29:28;;;;;;;8.70;5.53;;;7.00;57.20;;;;;;1480519;40;20031;-60
2021/04/08 06:30:49;;;;;;;8.50;5.53;;;7.00;57.20;;;;;;1480980;40;20942;-60
2021/04/08 06:32:10;;;;;;;7.18;5.40;;;7.00;57.20;;;;;;1481557;40;20028;-59
2021/04/08 06:33:31;;;;;;;7.28;5.07;;;7.00;57.30;;;;;;1478967;40;20087;-60
2021/04/08 06:34:52;;;;;;;9.57;6.15;;;7.00;57.30;;;;;;1480025;40;20033;-59
2021/04/08 06:36:13;;;;;;;9.70;5.60;;;7.10;57.30;;;;;;1478992;40;20029;-60
2021/04/08 06:37:34;;;;;;;6.32;5.40;;;7.10;57.20;;;;;;1480235;40;20114;-59
2021/04/08 06:38:54;;;;;;;6.60;5.10;;;7.10;57.20;;;;;;1481199;40;20029;-59
2021/04/08 06:40:16;;;;;;;7.43;5.60;;;7.10;57.20;;;;;;1479751;40;20032;-59
2021/04/08 06:41:38;;;;;;;6.68;5.15;;;7.10;57.20;;;;;;1480016;40;20033;-59
2021/04/08 06:43:01;;;;;;;7.00;5.00;;;7.20;57.20;;;;;;1481116;40;20040;-60
2021/04/08 06:44:24;;;;;;;8.23;5.07;;;7.20;57.40;;;;;;1480166;40;20033;-59
2021/04/08 06:45:48;;;;;;;6.68;4.70;;;7.20;57.20;;;;;;1480795;40;20028;-59
2021/04/08 06:47:09;;;;;;;6.75;5.25;;;7.20;57.20;;;;;;1479182;40;20073;-60
2021/04/08 06:48:41;;;;;;;5.78;5.22;;;7.20;57.10;;;;;;1482728;40;20437;-60
2021/04/08 06:50:05;;;;;;;5.90;5.05;;;7.30;56.90;;;;;;1481021;40;20048;-60
2021/04/08 06:51:31;;;;;;;10.00;5.57;;;7.30;56.50;;;;;;1480125;40;20129;-60
2021/04/08 06:52:54;;;;;;;9.50;6.18;;;7.30;56.50;;;;;;1476110;40;20033;-60
2021/04/08 06:54:17;;;;;;;11.07;5.38;;;7.30;56.60;;;;;;1479912;40;20393;-60
2021/04/08 06:55:38;;;;;;;9.52;5.72;;;7.30;56.60;;;;;;1482013;40;20033;-59
2021/04/08 06:57:01;;;;;;;11.68;5.93;;;7.30;56.70;;;;;;1481229;40;20044;-60
2021/04/08 06:58:22;;;;;;;9.70;5.57;;;7.30;56.70;;;;;;1478435;40;20036;-59
2021/04/08 06:59:43;;;;;;;7.68;5.28;;;7.30;56.50;;;;;;1482050;40;20021;-60
2021/04/08 07:01:09;;;;;;;7.57;5.13;;;7.30;56.60;;;;;;1479223;40;20060;-60
2021/04/08 07:02:31;;;;;;;8.90;5.07;;;7.40;56.60;;;;;;1481564;40;20404;-59
2021/04/08 07:03:54;;;;;;;7.55;4.93;;;7.40;56.80;;;;;;1481028;40;20033;-59
2021/04/08 07:05:15;;;;;;;9.23;4.72;;;7.40;56.80;;;;;;1479845;40;20033;-60
2021/04/08 07:06:37;;;;;;;8.32;4.82;;;7.40;56.80;;;;;;1479878;40;20516;-59
2021/04/08 07:07:58;;;;;;;5.07;4.22;;;7.40;56.90;;;;;;1478748;40;20025;-60
2021/04/08 07:09:19;;;;;;;8.25;5.18;;;7.50;56.90;;;;;;1482739;40;20036;-64
2021/04/08 07:10:41;;;;;;;6.18;4.90;;;7.50;56.80;;;;;;1479713;40;20037;-60
2021/04/08 07:12:02;;;;;;;6.78;4.95;;;7.60;56.70;;;;;;1480828;40;20053;-59
2021/04/08 07:13:29;;;;;;;6.72;4.10;;;7.60;56.70;;;;;;1479739;40;20096;-59
2021/04/08 07:14:53;;;;;;;6.65;4.75;;;7.60;56.60;;;;;;1480456;40;20040;-59
2021/04/08 07:16:14;;;;;;;8.82;5.00;;;7.70;56.30;;;;;;1479939;40;20495;-60